Time;durP1;ratioP1;P1;durP2;ratioP2;P2;SDS_P1;SDS_P2;PMS_P1;PMS_P2;Temp;Humidity;BMP_temperature;BMP_pressure;BME280_temperature;BME280_humidity;BME280_pressure;Samples;Min_cycle;Max_cycle;Signal;HPM_P1;HPM_P2
2022/08/04 00:00:43;;;;;;;5.80;3.28;;;23.40;70.60;;;;;;5014007;28;20074;-69
2022/08/04 00:03:13;;;;;;;10.70;3.83;;;23.40;70.70;;;;;;5009926;28;20104;-69
2022/08/04 00:05:58;;;;;;;4.85;3.03;;;23.30;71.00;;;;;;5009630;28;20107;-67
2022/08/04 00:08:45;;;;;;;7.53;3.20;;;23.30;71.50;;;;;;5004882;28;20048;-68
2022/08/04 00:11:14;;;;;;;7.25;3.00;;;23.30;71.90;;;;;;5030596;28;20049;-68
2022/08/04 00:13:42;;;;;;;9.85;3.60;;;23.30;71.00;;;;;;5035334;28;20069;-67
2022/08/04 00:16:09;;;;;;;7.63;2.80;;;23.30;71.20;;;;;;5015096;28;20891;-69
2022/08/04 00:18:56;;;;;;;5.03;3.30;;;23.30;71.70;;;;;;5032147;28;20041;-68
2022/08/04 00:21:24;;;;;;;6.18;3.10;;;23.20;72.20;;;;;;5023304;28;20108;-69
2022/08/04 00:23:51;;;;;;;6.78;2.97;;;23.20;72.40;;;;;;5005141;28;20052;-68
2022/08/04 00:26:18;;;;;;;4.27;2.90;;;23.20;71.50;;;;;;5025566;28;20834;-68
2022/08/04 00:28:45;;;;;;;3.53;3.15;;;23.10;71.90;;;;;;5021178;28;20493;-67
2022/08/04 00:31:13;;;;;;;7.30;2.97;;;23.20;72.10;;;;;;5012739;28;20115;-68
2022/08/04 00:33:43;;;;;;;6.85;3.08;;;23.20;72.10;;;;;;4982854;28;20084;-68
2022/08/04 00:36:11;;;;;;;6.18;3.08;;;23.10;72.20;;;;;;5009415;28;20050;-68
2022/08/04 00:38:41;;;;;;;6.93;3.38;;;23.10;72.50;;;;;;5026230;28;20041;-68
2022/08/04 00:41:41;;;;;;;5.35;3.20;;;23.10;72.90;;;;;;5009059;28;20042;-68
2022/08/04 00:44:28;;;;;;;5.43;2.95;;;23.00;73.20;;;;;;5009323;28;20360;-67
2022/08/04 00:47:04;;;;;;;6.75;2.80;;;22.90;73.10;;;;;;5027945;28;20049;-68
2022/08/04 00:49:54;;;;;;;5.07;3.30;;;22.90;73.80;;;;;;4995573;28;20136;-68
2022/08/04 00:52:57;;;;;;;6.97;3.00;;;22.80;74.30;;;;;;5023641;28;20072;-69
2022/08/04 00:55:48;;;;;;;5.65;3.30;;;22.70;74.60;;;;;;5024916;28;20124;-68
2022/08/04 00:58:32;;;;;;;5.78;3.35;;;22.80;74.40;;;;;;5020067;28;20482;-69
2022/08/04 01:01:39;;;;;;;4.82;3.00;;;22.70;74.10;;;;;;5022991;28;20499;-68
2022/08/04 01:04:19;;;;;;;8.00;3.27;;;22.70;74.20;;;;;;5005984;28;20125;-68
2022/08/04 01:07:14;;;;;;;5.93;3.20;;;22.60;75.00;;;;;;5007918;28;20183;-68
2022/08/04 01:10:16;;;;;;;6.00;3.63;;;22.40;74.40;;;;;;4998287;28;20157;-68
2022/08/04 01:13:05;;;;;;;12.52;3.63;;;22.40;73.80;;;;;;5004858;28;20056;-68
2022/08/04 01:16:18;;;;;;;7.32;3.42;;;22.40;73.40;;;;;;4965918;28;20057;-68
2022/08/04 01:19:02;;;;;;;6.28;3.53;;;22.30;72.90;;;;;;4988070;28;20046;-68
2022/08/04 01:21:44;;;;;;;6.68;3.30;;;22.30;71.40;;;;;;4989187;28;20617;-67
2022/08/04 01:24:29;;;;;;;5.45;2.83;;;22.20;70.50;;;;;;4985970;28;20078;-68
2022/08/04 01:27:05;;;;;;;9.77;3.47;;;22.30;70.20;;;;;;4973598;28;20062;-69
2022/08/04 01:29:35;;;;;;;6.53;3.00;;;22.20;69.40;;;;;;5013341;28;20462;-69
2022/08/04 01:32:07;;;;;;;8.80;3.60;;;22.30;69.60;;;;;;5014440;28;20045;-70
2022/08/04 01:34:38;;;;;;;6.55;3.80;;;22.20;69.70;;;;;;5026575;28;20099;-69
2022/08/04 01:37:40;;;;;;;8.05;3.28;;;22.20;69.90;;;;;;5012075;28;20738;-69
2022/08/04 01:40:08;;;;;;;8.60;3.25;;;22.20;70.20;;;;;;5025776;28;20107;-68
2022/08/04 01:42:35;;;;;;;8.15;3.50;;;22.10;71.10;;;;;;5024875;28;20636;-67
2022/08/04 01:45:07;;;;;;;7.50;3.38;;;22.10;71.20;;;;;;5025136;28;20132;-69
2022/08/04 01:47:44;;;;;;;5.50;2.80;;;22.10;71.00;;;;;;5027682;28;20490;-68
2022/08/04 01:50:12;;;;;;;7.13;3.25;;;22.00;70.90;;;;;;5008503;28;20486;-69
2022/08/04 01:52:41;;;;;;;6.70;3.40;;;22.10;71.30;;;;;;5023178;28;20135;-68
2022/08/04 01:55:10;;;;;;;7.32;3.35;;;22.10;71.30;;;;;;5020327;28;20045;-68
2022/08/04 01:57:47;;;;;;;7.80;3.50;;;22.00;71.70;;;;;;5024463;28;20057;-68
2022/08/04 02:00:25;;;;;;;7.50;3.20;;;22.00;72.10;;;;;;4990499;28;20111;-67
2022/08/04 02:02:52;;;;;;;9.02;3.30;;;22.00;72.20;;;;;;5011635;28;20045;-70
2022/08/04 02:05:21;;;;;;;4.97;3.25;;;22.00;72.00;;;;;;5025662;28;20475;-68
2022/08/04 02:08:26;;;;;;;6.95;3.35;;;22.00;71.70;;;;;;5022599;28;20490;-68
2022/08/04 02:11:04;;;;;;;5.80;3.45;;;22.00;72.00;;;;;;5007048;28;20344;-68
2022/08/04 02:14:01;;;;;;;7.22;3.50;;;22.00;72.30;;;;;;5015805;28;20060;-68
2022/08/04 02:16:50;;;;;;;5.78;3.28;;;22.00;72.20;;;;;;4969958;28;20046;-67
2022/08/04 02:19:38;;;;;;;7.55;3.40;;;21.90;72.50;;;;;;5018760;28;20099;-67
2022/08/04 02:22:11;;;;;;;10.38;3.55;;;21.90;72.50;;;;;;5008707;28;20065;-68
2022/08/04 02:24:44;;;;;;;6.13;3.60;;;21.80;72.30;;;;;;5032393;28;20049;-67
2022/08/04 02:27:13;;;;;;;7.57;3.33;;;21.70;72.30;;;;;;5027484;28;20065;-68
2022/08/04 02:29:58;;;;;;;5.07;3.63;;;21.70;72.10;;;;;;5023595;28;20050;-70
2022/08/04 02:32:29;;;;;;;9.50;3.90;;;21.70;72.60;;;;;;4986572;28;20050;-68
2022/08/04 02:35:06;;;;;;;7.80;3.50;;;21.60;73.50;;;;;;5008942;28;20417;-68
2022/08/04 02:37:34;;;;;;;4.85;3.25;;;21.50;73.80;;;;;;5009921;28;20368;-69
2022/08/04 02:40:04;;;;;;;5.25;3.55;;;21.40;75.40;;;;;;4993285;28;20219;-68
2022/08/04 02:42:32;;;;;;;7.93;3.92;;;21.30;75.50;;;;;;5009471;28;20060;-69
2022/08/04 02:44:59;;;;;;;7.22;3.40;;;21.30;75.40;;;;;;5004885;28;20053;-69
2022/08/04 02:47:27;;;;;;;5.97;3.67;;;21.20;75.50;;;;;;5026172;28;20050;-69
2022/08/04 02:49:55;;;;;;;8.77;3.75;;;21.30;75.50;;;;;;5024171;28;20057;-69
2022/08/04 02:52:23;;;;;;;8.60;3.20;;;21.30;74.70;;;;;;5026204;28;20045;-69
2022/08/04 02:54:52;;;;;;;6.18;3.35;;;21.30;74.40;;;;;;5022198;28;20050;-69
2022/08/04 02:57:20;;;;;;;4.80;3.05;;;21.30;74.10;;;;;;5003846;28;20048;-69
2022/08/04 03:00:09;;;;;;;6.57;3.53;;;21.40;74.20;;;;;;5008300;28;20070;-67
2022/08/04 03:03:04;;;;;;;5.43;3.00;;;21.40;74.10;;;;;;5015288;28;20376;-68
2022/08/04 03:06:15;;;;;;;7.78;3.70;;;21.30;73.70;;;;;;5007207;28;20050;-69
2022/08/04 03:09:12;;;;;;;9.57;3.67;;;21.40;73.70;;;;;;5019848;28;20053;-69
2022/08/04 03:12:12;;;;;;;5.53;3.72;;;21.40;73.60;;;;;;5023508;28;20568;-68
2022/08/04 03:15:15;;;;;;;7.68;3.65;;;21.30;73.40;;;;;;5027519;28;20068;-68
2022/08/04 03:18:19;;;;;;;8.27;3.67;;;21.30;73.10;;;;;;5023497;28;20491;-68
2022/08/04 03:21:03;;;;;;;9.90;3.72;;;21.10;73.30;;;;;;5027423;28;20080;-68
2022/08/04 03:24:07;;;;;;;7.30;3.95;;;21.10;74.10;;;;;;5027393;28;20041;-68
2022/08/04 03:26:47;;;;;;;6.25;3.50;;;20.90;74.80;;;;;;5021398;28;20054;-68
2022/08/04 03:29:42;;;;;;;11.30;3.65;;;20.90;74.90;;;;;;5025644;28;20940;-68
2022/08/04 03:32:40;;;;;;;5.60;3.28;;;20.90;74.70;;;;;;5022097;28;20168;-68
2022/08/04 03:35:43;;;;;;;8.15;3.28;;;20.90;74.50;;;;;;5005136;28;20042;-68
2022/08/04 03:38:33;;;;;;;5.47;3.42;;;21.00;74.60;;;;;;5025669;28;20176;-68
2022/08/04 03:41:18;;;;;;;6.85;4.13;;;20.90;74.70;;;;;;5022997;28;20042;-68
2022/08/04 03:44:08;;;;;;;5.88;3.80;;;20.80;75.50;;;;;;5021612;28;20057;-68
2022/08/04 03:46:59;;;;;;;9.95;3.80;;;20.70;74.90;;;;;;5026857;28;20048;-68
2022/08/04 03:50:02;;;;;;;4.55;3.58;;;20.70;75.20;;;;;;5020065;28;20101;-68
2022/08/04 03:55:40;;;;;;;4.85;3.60;;;20.80;74.90;;;;;;5018061;28;20089;-68
2022/08/04 03:58:44;;;;;;;6.10;3.95;;;20.80;75.20;;;;;;5024580;28;20119;-68
2022/08/04 04:01:22;;;;;;;10.43;3.60;;;20.80;75.30;;;;;;5020804;28;20072;-68
2022/08/04 04:03:51;;;;;;;7.47;3.97;;;20.80;74.50;;;;;;5027257;28;20127;-68
2022/08/04 04:06:29;;;;;;;4.95;3.30;;;20.80;74.80;;;;;;5021382;28;20128;-68
2022/08/04 04:09:32;;;;;;;9.55;4.75;;;20.80;74.80;;;;;;5023789;28;20747;-68
2022/08/04 04:12:25;;;;;;;8.30;3.70;;;20.70;75.00;;;;;;5026617;28;20061;-68
2022/08/04 04:15:16;;;;;;;7.80;3.80;;;20.60;74.80;;;;;;5026280;28;20383;-68
2022/08/04 04:18:25;;;;;;;6.30;3.53;;;20.70;74.50;;;;;;5019034;28;20096;-68
2022/08/04 04:21:19;;;;;;;6.85;3.53;;;20.70;74.70;;;;;;5022512;28;20494;-68
2022/08/04 04:24:36;;;;;;;7.63;3.83;;;20.70;75.20;;;;;;5029740;28;20045;-68
2022/08/04 04:27:16;;;;;;;5.93;3.63;;;20.70;75.20;;;;;;4994465;28;20061;-68
2022/08/04 04:30:07;;;;;;;6.40;3.80;;;20.70;75.50;;;;;;5014322;28;20192;-68
2022/08/04 04:33:07;;;;;;;8.52;4.30;;;20.60;75.10;;;;;;5015119;28;20076;-68
2022/08/04 04:36:16;;;;;;;13.18;4.25;;;20.60;75.80;;;;;;5029399;28;20168;-68
2022/08/04 04:39:20;;;;;;;8.77;3.90;;;20.60;76.10;;;;;;5024572;28;20044;-68
2022/08/04 04:42:08;;;;;;;8.02;4.43;;;20.60;75.80;;;;;;5034578;28;20056;-68
2022/08/04 04:45:09;;;;;;;6.10;3.97;;;20.50;75.50;;;;;;5024351;28;20498;-68
2022/08/04 04:48:00;;;;;;;7.35;4.05;;;20.40;75.30;;;;;;5006867;28;20268;-68
2022/08/04 04:50:56;;;;;;;7.60;4.32;;;20.40;75.30;;;;;;5010875;28;20050;-68
2022/08/04 04:53:46;;;;;;;8.07;4.32;;;20.40;76.40;;;;;;5016319;28;20045;-69
2022/08/04 04:56:39;;;;;;;6.50;4.30;;;20.30;75.50;;;;;;5006998;28;20131;-68
2022/08/04 04:59:10;;;;;;;6.88;3.92;;;20.40;75.50;;;;;;5025640;28;20108;-67
2022/08/04 05:01:57;;;;;;;6.30;3.95;;;20.30;75.40;;;;;;5025964;28;20171;-69
2022/08/04 05:04:38;;;;;;;7.18;3.70;;;20.40;75.60;;;;;;5017387;28;20383;-68
2022/08/04 05:07:45;;;;;;;7.10;3.80;;;20.50;75.20;;;;;;5016788;28;20042;-68
2022/08/04 05:10:48;;;;;;;7.55;3.92;;;20.60;74.40;;;;;;5019896;28;20791;-69
2022/08/04 05:13:41;;;;;;;7.32;3.78;;;20.70;73.70;;;;;;5017262;28;20076;-68
2022/08/04 05:16:30;;;;;;;9.20;4.00;;;20.80;73.10;;;;;;5023522;28;20123;-67
2022/08/04 05:19:21;;;;;;;6.85;4.20;;;20.90;72.60;;;;;;5028792;28;20057;-67
2022/08/04 05:22:19;;;;;;;6.38;3.63;;;20.90;72.40;;;;;;5022697;28;20172;-67
2022/08/04 05:24:46;;;;;;;6.18;3.10;;;21.00;72.40;;;;;;5006518;28;20078;-67
2022/08/04 05:27:20;;;;;;;7.63;3.88;;;21.10;72.20;;;;;;5017408;28;20050;-69
2022/08/04 05:29:56;;;;;;;6.45;3.60;;;21.10;72.10;;;;;;5023773;28;20132;-68
2022/08/04 05:32:25;;;;;;;10.40;3.88;;;21.20;72.10;;;;;;5023899;28;20077;-68
2022/08/04 05:34:57;;;;;;;9.50;4.10;;;21.20;71.20;;;;;;5018094;28;20065;-67
2022/08/04 05:37:24;;;;;;;6.30;3.50;;;21.30;70.90;;;;;;5021386;28;20500;-67
2022/08/04 05:39:57;;;;;;;17.67;13.60;;;21.30;70.60;;;;;;5024425;28;20042;-67
2022/08/04 05:42:24;;;;;;;9.23;5.40;;;21.40;70.60;;;;;;5015144;28;20152;-69
2022/08/04 05:44:52;;;;;;;4.93;3.33;;;21.50;70.50;;;;;;5002877;28;20088;-67
2022/08/04 05:47:20;;;;;;;6.38;3.30;;;21.50;70.50;;;;;;5023158;28;20044;-68
2022/08/04 05:49:47;;;;;;;;;;;21.50;70.50;;;;;;5000873;28;20052;-67
2022/08/04 05:52:14;;;;;;;7.28;3.88;;;21.60;70.50;;;;;;5017926;28;19920;-68
2022/08/04 05:54:42;;;;;;;7.00;3.80;;;21.70;70.10;;;;;;5019022;28;20045;-68
2022/08/04 05:57:09;;;;;;;4.50;3.33;;;21.70;69.90;;;;;;5005137;28;20812;-67
2022/08/04 05:59:37;;;;;;;6.68;3.90;;;21.70;70.50;;;;;;5026970;28;20133;-68
2022/08/04 06:02:05;;;;;;;7.53;4.45;;;21.70;69.50;;;;;;4998720;28;20054;-71
2022/08/04 06:04:40;;;;;;;8.95;3.45;;;21.70;69.50;;;;;;5009026;28;20050;-71
2022/08/04 06:07:07;;;;;;;7.90;3.30;;;21.80;69.20;;;;;;5036727;28;20053;-71
2022/08/04 06:09:34;;;;;;;7.85;3.58;;;21.90;68.90;;;;;;5024550;28;20060;-71
2022/08/04 06:12:03;;;;;;;6.18;3.42;;;21.90;69.10;;;;;;5006015;28;20060;-71
2022/08/04 06:14:37;;;;;;;6.95;3.08;;;21.90;69.20;;;;;;5020342;28;20054;-71
2022/08/04 06:17:04;;;;;;;6.25;3.42;;;21.90;69.20;;;;;;5025439;28;20052;-70
2022/08/04 06:19:33;;;;;;;3.90;2.93;;;22.00;69.30;;;;;;5024432;28;20377;-70
2022/08/04 06:22:00;;;;;;;;;;;22.00;69.50;;;;;;5010287;28;20059;-69
2022/08/04 06:24:27;;;;;;;7.72;3.33;;;22.20;70.20;;;;;;5024444;28;20456;-72
2022/08/04 06:26:54;;;;;;;5.82;3.20;;;22.20;70.10;;;;;;5024138;28;20069;-70
2022/08/04 06:29:40;;;;;;;6.72;3.28;;;22.30;70.00;;;;;;5023806;28;20055;-62
2022/08/04 06:35:03;;;;;;;6.45;3.30;;;22.40;69.70;;;;;;5025239;28;20467;-61
2022/08/04 06:37:30;;;;;;;7.88;3.17;;;22.50;69.70;;;;;;5019027;28;20046;-61
2022/08/04 06:39:57;;;;;;;5.93;2.95;;;22.50;69.70;;;;;;5009186;28;20136;-61
2022/08/04 06:42:25;;;;;;;7.95;3.13;;;22.60;69.60;;;;;;4991882;28;20050;-62
2022/08/04 06:44:56;;;;;;;6.25;3.35;;;22.60;69.50;;;;;;5024330;28;20551;-62
2022/08/04 06:47:23;;;;;;;5.28;2.85;;;22.70;69.20;;;;;;5033356;28;20055;-63
2022/08/04 06:49:52;;;;;;;7.93;3.15;;;22.80;69.70;;;;;;5008755;28;20049;-62
2022/08/04 06:52:19;;;;;;;8.18;3.10;;;22.80;69.20;;;;;;5000390;28;20060;-62
2022/08/04 06:54:52;;;;;;;5.22;3.05;;;22.90;69.30;;;;;;5017342;28;20053;-62
2022/08/04 06:57:23;;;;;;;4.15;2.97;;;23.00;69.30;;;;;;5022716;28;20048;-61
2022/08/04 06:59:54;;;;;;;5.65;3.08;;;23.00;69.20;;;;;;5026280;28;20095;-61
2022/08/04 07:02:24;;;;;;;5.05;3.53;;;23.20;69.00;;;;;;5007740;28;20408;-62
2022/08/04 07:04:51;;;;;;;4.57;2.92;;;23.30;68.20;;;;;;5029135;28;20655;-62
2022/08/04 07:07:18;;;;;;;5.05;2.95;;;23.30;68.00;;;;;;5003374;28;20056;-61
2022/08/04 07:09:45;;;;;;;6.45;3.30;;;23.40;67.70;;;;;;5022858;28;20172;-62
2022/08/04 07:12:12;;;;;;;5.47;3.30;;;23.50;67.90;;;;;;5023467;28;20120;-63
2022/08/04 07:14:39;;;;;;;7.20;2.97;;;23.60;68.30;;;;;;5008117;28;20050;-62
2022/08/04 07:17:07;;;;;;;8.47;3.07;;;23.60;68.20;;;;;;5027668;28;20045;-62
2022/08/04 07:19:34;;;;;;;;;;;23.80;68.50;;;;;;5008523;28;20046;-63
2022/08/04 07:22:06;;;;;;;9.00;2.60;;;23.80;68.20;;;;;;5023854;28;20016;-62
2022/08/04 07:24:40;;;;;;;7.63;2.55;;;24.00;67.50;;;;;;5025075;28;20053;-62
2022/08/04 07:27:09;;;;;;;5.30;2.75;;;24.10;67.00;;;;;;5030245;28;20061;-65
2022/08/04 07:29:35;;;;;;;6.53;2.70;;;24.20;66.20;;;;;;5021120;28;20049;-65
2022/08/04 07:32:01;;;;;;;7.57;2.50;;;24.20;66.30;;;;;;5022020;28;20135;-65
2022/08/04 07:34:27;;;;;;;5.75;2.30;;;24.30;65.70;;;;;;5021360;28;20049;-65
2022/08/04 07:36:54;;;;;;;3.85;2.20;;;24.40;65.00;;;;;;4989457;28;20077;-71
2022/08/04 07:39:20;;;;;;;4.93;3.05;;;24.50;64.90;;;;;;5028377;28;20099;-64
2022/08/04 07:41:46;;;;;;;5.65;2.60;;;24.60;64.80;;;;;;5026382;28;20052;-64
2022/08/04 07:44:15;;;;;;;6.85;2.78;;;24.70;63.70;;;;;;5010052;28;20045;-64
2022/08/04 07:46:41;;;;;;;5.47;2.55;;;24.70;63.20;;;;;;5011841;28;20084;-64
2022/08/04 07:49:08;;;;;;;7.38;2.60;;;24.80;63.60;;;;;;5014441;28;20045;-64
2022/08/04 07:51:34;;;;;;;5.35;2.67;;;24.90;63.50;;;;;;5010777;28;20049;-65
2022/08/04 07:54:03;;;;;;;3.80;2.65;;;25.00;63.00;;;;;;5029651;28;20049;-65
2022/08/04 07:56:30;;;;;;;7.07;3.10;;;25.20;63.20;;;;;;5026850;28;20056;-64
2022/08/04 07:58:56;;;;;;;7.88;2.83;;;25.30;63.00;;;;;;5022471;28;20120;-64
2022/08/04 08:01:24;;;;;;;5.50;2.45;;;25.50;62.60;;;;;;5027370;28;20077;-64
2022/08/04 08:03:51;;;;;;;7.07;2.58;;;25.50;62.00;;;;;;5013523;28;20056;-64
2022/08/04 08:06:17;;;;;;;5.85;2.70;;;25.60;61.30;;;;;;5027555;28;20476;-64
2022/08/04 08:08:43;;;;;;;5.03;2.30;;;25.70;61.90;;;;;;5027716;28;20056;-67
2022/08/04 08:11:09;;;;;;;6.15;2.60;;;25.70;61.80;;;;;;5027979;28;20077;-64
2022/08/04 08:13:34;;;;;;;5.45;2.38;;;25.80;61.20;;;;;;5030021;28;20045;-64
2022/08/04 08:16:00;;;;;;;11.85;2.30;;;25.80;59.90;;;;;;5011359;28;20041;-65
2022/08/04 08:18:26;;;;;;;6.32;2.00;;;25.90;60.50;;;;;;5028330;28;20054;-65
2022/08/04 08:20:52;;;;;;;5.57;2.25;;;26.00;60.00;;;;;;5030895;28;20147;-65
2022/08/04 08:23:18;;;;;;;4.75;2.50;;;26.10;58.40;;;;;;4993250;28;20041;-66
2022/08/04 08:25:43;;;;;;;4.38;2.25;;;26.20;57.60;;;;;;5026726;28;20093;-65
2022/08/04 08:28:09;;;;;;;2.90;2.13;;;26.20;57.80;;;;;;5020071;28;20072;-64
2022/08/04 08:30:35;;;;;;;5.25;2.42;;;26.20;58.60;;;;;;5023296;28;20053;-64
2022/08/04 08:33:05;;;;;;;4.78;2.00;;;26.30;57.40;;;;;;5020812;28;20081;-65
2022/08/04 08:35:41;;;;;;;4.18;2.20;;;26.40;56.20;;;;;;5010116;28;20042;-65
2022/08/04 08:38:07;;;;;;;8.68;2.15;;;26.50;55.60;;;;;;5004934;28;20045;-65
2022/08/04 08:40:40;;;;;;;4.32;2.10;;;26.50;54.50;;;;;;5010246;28;20408;-65
2022/08/04 08:43:24;;;;;;;8.43;2.30;;;26.70;53.50;;;;;;5028317;28;20108;-66
2022/08/04 08:45:56;;;;;;;4.07;1.95;;;26.90;52.10;;;;;;5029696;28;20576;-66
2022/08/04 08:48:52;;;;;;;5.45;1.90;;;27.00;52.80;;;;;;5024702;28;20475;-64
2022/08/04 08:51:33;;;;;;;4.57;1.92;;;27.00;51.90;;;;;;5003621;28;20485;-65
2022/08/04 08:54:08;;;;;;;6.30;1.90;;;27.40;47.80;;;;;;5028184;28;20042;-64
2022/08/04 08:56:39;;;;;;;5.57;2.10;;;27.50;50.40;;;;;;5011244;28;20046;-65
2022/08/04 08:59:15;;;;;;;3.47;1.80;;;27.50;47.40;;;;;;4990477;28;20057;-66
2022/08/04 09:01:52;;;;;;;4.97;1.90;;;27.80;46.40;;;;;;5012088;28;20053;-66
2022/08/04 09:04:30;;;;;;;5.00;1.92;;;28.00;46.90;;;;;;5023445;28;20139;-64
2022/08/04 09:07:00;;;;;;;5.63;2.05;;;28.00;48.60;;;;;;5030992;28;20053;-65
2022/08/04 09:09:54;;;;;;;2.63;1.83;;;28.20;44.70;;;;;;5029247;28;20049;-64
2022/08/04 09:12:26;;;;;;;5.45;1.98;;;28.60;45.60;;;;;;5022511;28;20061;-65
2022/08/04 09:14:59;;;;;;;6.07;2.05;;;28.60;44.70;;;;;;5024628;28;20110;-65
2022/08/04 09:17:54;;;;;;;16.80;2.10;;;28.60;44.20;;;;;;5022076;28;20046;-65
2022/08/04 09:20:41;;;;;;;6.18;1.75;;;29.00;44.60;;;;;;5007676;28;20097;-66
2022/08/04 09:23:27;;;;;;;5.13;1.80;;;29.00;44.40;;;;;;5007878;28;20387;-66
2022/08/04 09:26:16;;;;;;;6.70;2.10;;;29.10;42.90;;;;;;5020111;28;20051;-66
2022/08/04 09:28:51;;;;;;;4.28;1.80;;;29.30;43.60;;;;;;5028528;28;20053;-66
2022/08/04 09:31:21;;;;;;;6.10;1.73;;;29.30;42.60;;;;;;5011951;28;20603;-67
2022/08/04 09:34:09;;;;;;;5.65;1.88;;;29.30;42.90;;;;;;5022172;28;20475;-64
2022/08/04 09:36:38;;;;;;;4.68;1.80;;;29.40;43.40;;;;;;5007301;28;20045;-65
2022/08/04 09:39:22;;;;;;;4.38;1.83;;;29.70;41.30;;;;;;5005007;28;20581;-67
2022/08/04 09:42:15;;;;;;;3.35;1.58;;;29.50;42.60;;;;;;5010457;28;20072;-65
2022/08/04 09:45:03;;;;;;;4.40;1.90;;;29.70;41.40;;;;;;5013562;28;20041;-66
2022/08/04 09:47:59;;;;;;;5.57;1.83;;;29.90;42.70;;;;;;5017468;28;20468;-66
2022/08/04 09:50:37;;;;;;;5.20;1.88;;;30.20;40.20;;;;;;5022423;28;20041;-65
2022/08/04 09:53:41;;;;;;;4.60;2.10;;;30.30;40.00;;;;;;5025871;28;20057;-66
2022/08/04 09:56:37;;;;;;;6.20;1.98;;;30.70;39.90;;;;;;5024689;28;20045;-63
2022/08/04 09:59:28;;;;;;;3.53;1.80;;;30.70;38.60;;;;;;4994680;28;20038;-66
2022/08/04 10:02:08;;;;;;;6.90;1.70;;;30.70;38.30;;;;;;5011984;28;20080;-65
2022/08/04 10:04:35;;;;;;;3.95;1.92;;;30.90;37.70;;;;;;5024777;28;20567;-65
2022/08/04 10:07:41;;;;;;;2.95;2.30;;;31.00;38.90;;;;;;5027454;28;20053;-65
2022/08/04 10:10:25;;;;;;;5.85;2.17;;;30.90;38.80;;;;;;5020650;28;20479;-67
2022/08/04 10:13:01;;;;;;;4.20;2.00;;;31.00;39.50;;;;;;5025406;28;20058;-67
2022/08/04 10:15:44;;;;;;;4.65;2.10;;;31.40;38.50;;;;;;5006320;28;20495;-66
2022/08/04 10:18:28;;;;;;;4.15;1.98;;;31.40;38.70;;;;;;5033768;28;20387;-67
2022/08/04 10:21:04;;;;;;;3.78;1.85;;;31.60;36.90;;;;;;5014250;28;20038;-67
2022/08/04 10:24:03;;;;;;;6.55;1.98;;;31.80;36.80;;;;;;5010875;28;20900;-67
2022/08/04 10:26:50;;;;;;;5.53;1.90;;;31.70;37.70;;;;;;5013879;28;20347;-65
2022/08/04 10:29:23;;;;;;;5.00;1.80;;;31.60;38.40;;;;;;5009838;28;20266;-65
2022/08/04 10:32:08;;;;;;;3.42;2.00;;;31.80;37.80;;;;;;5026831;28;20056;-65
2022/08/04 10:35:02;;;;;;;5.72;2.10;;;31.80;37.20;;;;;;5008226;28;20108;-66
2022/08/04 10:37:58;;;;;;;8.23;2.00;;;31.90;37.00;;;;;;5025200;28;20037;-64
2022/08/04 10:40:56;;;;;;;4.68;1.67;;;32.10;37.20;;;;;;5016327;28;20046;-65
2022/08/04 10:43:59;;;;;;;4.10;1.80;;;32.10;36.70;;;;;;5011845;28;20041;-67
2022/08/04 10:46:36;;;;;;;5.38;1.95;;;32.10;36.40;;;;;;5021607;28;20050;-66
2022/08/04 10:49:04;;;;;;;4.43;2.10;;;32.10;37.10;;;;;;5006405;28;20139;-67
2022/08/04 10:52:07;;;;;;;7.68;2.20;;;32.00;36.80;;;;;;5020154;28;20479;-64
2022/08/04 10:54:46;;;;;;;3.67;1.83;;;32.00;36.60;;;;;;5016134;28;20757;-67
2022/08/04 10:57:35;;;;;;;3.25;1.88;;;32.00;36.70;;;;;;5022225;28;20156;-66
2022/08/04 11:00:13;;;;;;;4.28;1.92;;;32.00;36.80;;;;;;5016637;28;20124;-66
2022/08/04 11:02:49;;;;;;;5.20;2.25;;;32.10;36.30;;;;;;5024246;28;20164;-66
2022/08/04 11:05:38;;;;;;;3.92;1.92;;;32.20;36.50;;;;;;5016985;28;20616;-65
2022/08/04 11:08:10;;;;;;;5.18;1.90;;;32.10;37.40;;;;;;5019254;28;20128;-66
2022/08/04 11:10:47;;;;;;;4.47;1.85;;;32.10;37.50;;;;;;5007499;28;20061;-65
2022/08/04 11:13:15;;;;;;;3.65;1.70;;;32.30;37.70;;;;;;5009572;28;20141;-65
2022/08/04 11:15:50;;;;;;;;;;;32.40;37.00;;;;;;5018255;28;20037;-66
2022/08/04 11:19:05;;;;;;;4.97;1.88;;;32.40;37.40;;;;;;5025941;28;19971;-67
2022/08/04 11:21:33;;;;;;;5.43;1.80;;;32.40;36.80;;;;;;5028381;28;20041;-67
2022/08/04 11:24:25;;;;;;;4.43;1.80;;;32.60;37.30;;;;;;5029806;28;20065;-67
2022/08/04 11:26:56;;;;;;;5.68;1.65;;;32.70;36.90;;;;;;5028215;28;20072;-66
2022/08/04 11:29:41;;;;;;;5.72;1.90;;;33.00;37.20;;;;;;5029544;28;20045;-67
2022/08/04 11:32:34;;;;;;;8.63;2.42;;;33.00;35.80;;;;;;5025937;28;20053;-66
2022/08/04 11:35:03;;;;;;;5.32;1.77;;;33.00;36.80;;;;;;5011116;28;20045;-66
2022/08/04 11:38:01;;;;;;;5.32;2.22;;;33.10;36.10;;;;;;4996872;28;20120;-65
2022/08/04 11:40:41;;;;;;;5.88;1.88;;;33.10;35.80;;;;;;5011361;28;20041;-66
2022/08/04 11:43:35;;;;;;;2.72;1.88;;;33.20;35.80;;;;;;5025511;28;20085;-65
2022/08/04 11:46:11;;;;;;;1.92;1.60;;;33.30;36.10;;;;;;5036990;28;20051;-66
2022/08/04 11:49:11;;;;;;;4.45;1.50;;;33.40;36.40;;;;;;5018702;28;20049;-66
2022/08/04 11:51:37;;;;;;;2.92;1.50;;;33.70;36.00;;;;;;5016549;28;20050;-66
2022/08/04 11:54:04;;;;;;;3.17;1.55;;;33.80;34.50;;;;;;5026337;28;20072;-68
2022/08/04 11:56:31;;;;;;;6.90;1.75;;;33.90;34.30;;;;;;5024662;28;21683;-67
2022/08/04 11:58:58;;;;;;;4.10;1.90;;;34.00;33.50;;;;;;5029450;28;20049;-66
2022/08/04 12:01:37;;;;;;;2.13;1.70;;;34.00;34.00;;;;;;5025409;28;20046;-67
2022/08/04 12:04:17;;;;;;;3.67;1.77;;;34.00;34.20;;;;;;5021624;28;20119;-67
2022/08/04 12:07:02;;;;;;;6.90;1.90;;;34.00;33.90;;;;;;5028262;28;20128;-67
2022/08/04 12:10:06;;;;;;;3.60;1.80;;;33.90;34.00;;;;;;5025456;28;20542;-67
2022/08/04 12:13:12;;;;;;;4.68;1.83;;;33.80;34.00;;;;;;5025097;28;20594;-67
2022/08/04 12:16:02;;;;;;;2.85;1.58;;;33.80;34.80;;;;;;5017258;28;20040;-67
2022/08/04 12:19:02;;;;;;;3.72;1.77;;;33.70;34.40;;;;;;5002874;28;20792;-67
2022/08/04 12:21:38;;;;;;;3.40;1.70;;;33.80;34.60;;;;;;5044955;28;20132;-66
2022/08/04 12:24:25;;;;;;;4.30;1.75;;;33.80;34.60;;;;;;5029594;28;20051;-66
2022/08/04 12:27:03;;;;;;;3.07;1.50;;;34.00;35.00;;;;;;5023892;28;20162;-72
2022/08/04 12:29:32;;;;;;;5.40;1.77;;;34.00;34.00;;;;;;5027328;28;20359;-71
2022/08/04 12:32:11;;;;;;;3.33;1.92;;;34.00;33.40;;;;;;5010119;28;20050;-70
2022/08/04 12:35:20;;;;;;;6.15;1.67;;;34.00;33.20;;;;;;5009983;28;20136;-73
2022/08/04 12:38:10;;;;;;;5.10;1.70;;;33.90;33.90;;;;;;5028905;28;20041;-72
2022/08/04 12:40:45;;;;;;;4.95;2.00;;;34.00;33.90;;;;;;5028556;28;20164;-72
2022/08/04 12:43:46;;;;;;;14.25;2.13;;;34.20;34.40;;;;;;5023313;28;20053;-72
2022/08/04 12:46:22;;;;;;;3.55;1.60;;;34.30;34.10;;;;;;5031574;28;20128;-72
2022/08/04 12:48:49;;;;;;;4.18;1.73;;;34.30;34.00;;;;;;5007737;28;20463;-72
2022/08/04 12:51:17;;;;;;;2.70;1.70;;;34.60;33.30;;;;;;5020544;28;20498;-72
2022/08/04 12:53:46;;;;;;;2.67;1.77;;;34.90;33.50;;;;;;5027707;28;20467;-71
2022/08/04 12:56:13;;;;;;;2.50;1.60;;;35.00;33.10;;;;;;5024700;28;20491;-71
2022/08/04 12:58:41;;;;;;;;;;;35.10;32.80;;;;;;5018117;28;20577;-73
2022/08/04 13:01:12;;;;;;;5.50;1.80;;;35.20;32.10;;;;;;5024663;28;20329;-71
2022/08/04 13:04:01;;;;;;;6.22;1.80;;;35.30;32.80;;;;;;5024025;28;20601;-72
2022/08/04 13:06:30;;;;;;;5.20;1.90;;;35.30;32.60;;;;;;5023211;28;20451;-71
2022/08/04 13:09:08;;;;;;;3.63;1.70;;;35.30;32.90;;;;;;5037000;28;20419;-73
2022/08/04 13:11:39;;;;;;;3.45;2.17;;;35.20;32.50;;;;;;5005986;28;20566;-72
2022/08/04 13:14:07;;;;;;;3.78;1.85;;;35.10;32.70;;;;;;5016238;28;20090;-71
2022/08/04 13:16:34;;;;;;;4.22;1.92;;;35.20;32.90;;;;;;5018424;28;20132;-71
2022/08/04 13:19:02;;;;;;;7.60;2.15;;;35.30;32.50;;;;;;5026935;28;20052;-71
2022/08/04 13:21:29;;;;;;;6.88;2.60;;;35.40;33.00;;;;;;5007667;28;20061;-72
2022/08/04 13:24:00;;;;;;;5.40;1.90;;;35.40;32.30;;;;;;5026889;28;20184;-71
2022/08/04 13:26:28;;;;;;;3.25;1.80;;;35.40;32.50;;;;;;5006636;28;20455;-71
2022/08/04 13:28:58;;;;;;;3.70;1.85;;;35.50;32.50;;;;;;5026434;28;20610;-72
2022/08/04 13:31:26;;;;;;;5.65;2.10;;;35.60;33.10;;;;;;5026560;28;20153;-72
2022/08/04 13:34:01;;;;;;;7.93;2.10;;;35.80;32.60;;;;;;5023936;28;20048;-72
2022/08/04 13:36:28;;;;;;;4.05;1.85;;;35.80;32.40;;;;;;5023894;28;20054;-71
2022/08/04 13:38:58;;;;;;;4.05;1.90;;;35.80;32.90;;;;;;5029413;28;20060;-70
2022/08/04 13:41:26;;;;;;;2.70;1.95;;;35.70;33.00;;;;;;5030427;28;20045;-71
2022/08/04 13:43:57;;;;;;;5.47;1.60;;;35.70;32.60;;;;;;5026533;28;20049;-71
2022/08/04 13:46:28;;;;;;;7.32;1.70;;;35.80;32.40;;;;;;5008896;28;20057;-71
2022/08/04 13:49:01;;;;;;;4.20;1.77;;;35.70;32.40;;;;;;5018156;28;20060;-72
2022/08/04 13:51:28;;;;;;;2.90;1.60;;;35.80;32.50;;;;;;5007648;28;20391;-73
2022/08/04 13:53:57;;;;;;;2.13;1.40;;;35.80;31.70;;;;;;5019928;28;20057;-72